Time;durP1;ratioP1;P1;durP2;ratioP2;P2;SDS_P1;SDS_P2;PMS_P1;PMS_P2;Temp;Humidity;BMP_temperature;BMP_pressure;BME280_temperature;BME280_humidity;BME280_pressure;Samples;Min_cycle;Max_cycle;Signal;HPM_P1;HPM_P2
2024/04/11 00:00:24;;;;;;;2.40;1.60;;;2.80;98.70;;;;;;2222238;26;20272;-73
2024/04/11 00:01:25;;;;;;;2.90;1.90;;;2.80;98.70;;;;;;2231989;26;20414;-73
2024/04/11 00:02:26;;;;;;;3.27;1.47;;;2.80;98.90;;;;;;2219485;26;20337;-73
2024/04/11 00:03:27;;;;;;;3.95;1.40;;;2.80;98.80;;;;;;2235472;26;20315;-73
2024/04/11 00:04:29;;;;;;;3.88;1.70;;;2.80;98.70;;;;;;2244293;26;20300;-73
2024/04/11 00:05:29;;;;;;;2.72;1.40;;;2.80;98.60;;;;;;2236330;26;20777;-72
2024/04/11 00:06:30;;;;;;;1.60;1.40;;;2.70;98.40;;;;;;2229994;26;20275;-73
2024/04/11 00:07:31;;;;;;;3.37;1.57;;;2.80;98.50;;;;;;2234905;26;20305;-73
2024/04/11 00:08:32;;;;;;;3.15;1.65;;;2.60;98.30;;;;;;2229677;26;20273;-73
2024/04/11 00:09:33;;;;;;;5.40;1.70;;;2.60;98.40;;;;;;2229408;26;20317;-73
2024/04/11 00:10:34;;;;;;;2.03;1.67;;;2.70;98.70;;;;;;2232459;26;20262;-73
2024/04/11 00:11:34;;;;;;;3.43;1.50;;;2.80;99.10;;;;;;2236012;26;20302;-73
2024/04/11 00:12:35;;;;;;;3.40;1.90;;;2.80;99.20;;;;;;2231443;26;20312;-73
2024/04/11 00:13:36;;;;;;;3.60;1.40;;;2.80;99.10;;;;;;2228298;26;20302;-74
2024/04/11 00:14:36;;;;;;;4.30;1.50;;;2.70;98.90;;;;;;2252375;26;20312;-73
2024/04/11 00:15:37;;;;;;;2.67;1.40;;;2.70;98.70;;;;;;2247492;26;20314;-73
2024/04/11 00:16:38;;;;;;;2.50;1.67;;;2.70;98.70;;;;;;2238682;26;20760;-74
2024/04/11 00:17:39;;;;;;;2.33;1.33;;;2.70;98.80;;;;;;2240673;26;20373;-73
2024/04/11 00:18:39;;;;;;;3.30;1.27;;;2.70;98.80;;;;;;2236837;26;20306;-73
2024/04/11 00:19:40;;;;;;;1.83;1.60;;;2.70;98.70;;;;;;2232427;26;20267;-74
2024/04/11 00:20:41;;;;;;;1.70;1.20;;;2.70;98.40;;;;;;2221801;26;20318;-74
2024/04/11 00:21:42;;;;;;;3.53;1.30;;;2.60;98.20;;;;;;2235360;26;20302;-73
2024/04/11 00:22:42;;;;;;;2.70;1.57;;;2.70;98.40;;;;;;2229269;26;20325;-73
2024/04/11 00:23:47;;;;;;;2.10;1.53;;;2.60;98.30;;;;;;2220211;26;20759;-73
2024/04/11 00:24:48;;;;;;;4.38;1.30;;;2.60;98.40;;;;;;2217061;26;20321;-74
2024/04/11 00:25:57;;;;;;;4.18;1.30;;;2.50;98.70;;;;;;2233186;26;20293;-73
2024/04/11 00:26:58;;;;;;;4.07;1.50;;;2.50;99.10;;;;;;2232979;26;20393;-73
2024/04/11 00:27:59;;;;;;;5.20;1.60;;;2.40;99.10;;;;;;2226448;26;20425;-74
2024/04/11 00:28:59;;;;;;;4.30;1.50;;;2.40;99.30;;;;;;2230079;26;20552;-73
2024/04/11 00:30:00;;;;;;;3.50;1.73;;;2.30;99.30;;;;;;2242374;26;20372;-73
2024/04/11 00:31:01;;;;;;;4.10;1.67;;;2.40;99.90;;;;;;2240192;26;20228;-72
2024/04/11 00:32:02;;;;;;;2.80;1.67;;;2.40;99.90;;;;;;2235066;26;20722;-72
2024/04/11 00:33:02;;;;;;;3.10;1.80;;;2.40;99.90;;;;;;2234962;26;20227;-74
2024/04/11 00:34:15;;;;;;;3.10;1.40;;;2.30;99.90;;;;;;2242073;26;20517;-74
2024/04/11 00:35:18;;;;;;;3.78;2.03;;;2.30;99.90;;;;;;2247390;26;20332;-73
2024/04/11 00:36:18;;;;;;;4.32;1.92;;;2.40;99.90;;;;;;2233273;26;20328;-73
2024/04/11 00:37:22;;;;;;;5.63;2.03;;;2.40;99.90;;;;;;2244885;26;20238;-74
2024/04/11 00:38:23;;;;;;;4.47;1.60;;;2.40;99.90;;;;;;2245260;26;20822;-73
2024/04/11 00:39:24;;;;;;;4.20;2.00;;;2.50;99.90;;;;;;2244840;26;20322;-74
2024/04/11 00:40:25;;;;;;;3.97;1.52;;;2.50;99.70;;;;;;2228864;26;20270;-74
2024/04/11 00:41:26;;;;;;;2.30;1.60;;;2.50;99.50;;;;;;2223540;26;20305;-73
2024/04/11 00:42:28;;;;;;;3.37;1.70;;;2.50;99.50;;;;;;2238685;26;20266;-74
2024/04/11 00:43:30;;;;;;;6.00;1.65;;;2.50;99.30;;;;;;2240557;26;20494;-73
2024/04/11 00:44:32;;;;;;;4.80;1.58;;;2.50;99.30;;;;;;2239279;26;20279;-73
2024/04/11 00:45:38;;;;;;;5.97;1.60;;;2.50;99.20;;;;;;2243679;26;20402;-74
2024/04/11 00:46:40;;;;;;;3.00;1.40;;;2.50;99.50;;;;;;2239910;26;20261;-74
2024/04/11 00:47:41;;;;;;;3.35;1.38;;;2.50;99.80;;;;;;2247396;26;20375;-74
2024/04/11 00:48:42;;;;;;;3.53;1.80;;;2.50;99.90;;;;;;2240601;26;20955;-73
2024/04/11 00:49:44;;;;;;;2.78;2.00;;;2.40;99.90;;;;;;2240350;26;20261;-74
2024/04/11 00:50:46;;;;;;;6.00;1.65;;;2.40;99.80;;;;;;2239865;26;20358;-74
2024/04/11 00:51:48;;;;;;;2.42;1.42;;;2.40;99.70;;;;;;2238248;26;20316;-73
2024/04/11 00:52:50;;;;;;;3.97;2.13;;;2.40;99.40;;;;;;2247645;26;20264;-73
2024/04/11 00:53:53;;;;;;;3.95;1.60;;;2.50;99.40;;;;;;2248741;26;20261;-73
2024/04/11 00:54:56;;;;;;;4.55;1.80;;;2.40;99.00;;;;;;2236925;26;20294;-73
2024/04/11 00:55:57;;;;;;;5.85;1.60;;;2.50;99.40;;;;;;2237707;26;20282;-73
2024/04/11 00:56:59;;;;;;;3.20;1.60;;;2.40;99.20;;;;;;2241103;26;20358;-74
2024/04/11 00:58:00;;;;;;;4.40;1.60;;;2.40;99.20;;;;;;2234309;26;20265;-74
2024/04/11 00:59:01;;;;;;;4.97;1.70;;;2.30;99.40;;;;;;2230794;26;20694;-71
2024/04/11 01:00:02;;;;;;;2.33;1.30;;;2.20;99.50;;;;;;2243671;26;20230;-72
2024/04/11 01:01:04;;;;;;;2.40;1.40;;;2.20;99.70;;;;;;2229100;26;20273;-73
2024/04/11 01:02:07;;;;;;;4.35;1.80;;;2.10;99.70;;;;;;2234867;26;20331;-74
2024/04/11 01:03:09;;;;;;;2.72;1.25;;;2.00;99.90;;;;;;2241646;26;20225;-73
2024/04/11 01:04:10;;;;;;;4.13;1.60;;;2.00;99.90;;;;;;2242011;26;20212;-73
2024/04/11 01:05:11;;;;;;;3.58;1.38;;;2.00;99.90;;;;;;2243487;26;20216;-72
2024/04/11 01:06:13;;;;;;;10.77;2.47;;;2.10;99.90;;;;;;2242706;26;20263;-73
2024/04/11 01:07:14;;;;;;;3.33;1.60;;;2.10;99.90;;;;;;2243598;26;20220;-73
2024/04/11 01:08:15;;;;;;;5.03;1.80;;;2.10;99.90;;;;;;2228161;26;20229;-73
2024/04/11 01:09:24;;;;;;;3.93;1.80;;;2.10;99.90;;;;;;2231795;26;20218;-73
2024/04/11 01:10:25;;;;;;;3.78;1.70;;;2.10;99.90;;;;;;2234470;26;20341;-72
2024/04/11 01:11:25;;;;;;;2.50;1.60;;;2.10;99.90;;;;;;2222296;26;20266;-73
2024/04/11 01:12:26;;;;;;;2.70;1.40;;;2.20;99.90;;;;;;2234588;26;20304;-75
2024/04/11 01:13:27;;;;;;;5.10;1.60;;;2.10;99.90;;;;;;2241015;26;20618;-73
2024/04/11 01:14:28;;;;;;;4.17;2.23;;;2.30;99.90;;;;;;2229428;26;20272;-73
2024/04/11 01:15:28;;;;;;;3.57;1.40;;;2.20;99.90;;;;;;2242576;26;20269;-73
2024/04/11 01:16:30;;;;;;;4.17;1.50;;;2.20;99.90;;;;;;2244408;26;20796;-73
2024/04/11 01:17:31;;;;;;;3.50;1.63;;;2.10;99.80;;;;;;2215575;26;20280;-73
2024/04/11 01:18:32;;;;;;;3.67;1.60;;;2.20;99.90;;;;;;2231401;26;20757;-73
2024/04/11 01:19:32;;;;;;;4.17;1.73;;;2.20;99.90;;;;;;2243313;26;20265;-73
2024/04/11 01:20:33;;;;;;;3.40;1.80;;;2.10;99.90;;;;;;2237495;26;20272;-73
2024/04/11 01:21:34;;;;;;;3.10;1.60;;;2.20;99.90;;;;;;2237676;26;20338;-73
2024/04/11 01:22:40;;;;;;;2.73;1.43;;;2.20;99.90;;;;;;2239868;26;20723;-73
2024/04/11 01:23:42;;;;;;;3.25;1.60;;;2.20;99.90;;;;;;2233318;26;20835;-73
2024/04/11 01:24:43;;;;;;;5.85;1.80;;;2.20;99.90;;;;;;2232378;26;20301;-73
2024/04/11 01:25:44;;;;;;;2.37;1.83;;;2.30;99.70;;;;;;2240349;26;20622;-73
2024/04/11 01:26:47;;;;;;;3.92;1.63;;;2.30;99.50;;;;;;2239855;26;20384;-73
2024/04/11 01:27:48;;;;;;;4.00;1.70;;;2.10;99.30;;;;;;2247178;26;20369;-73
2024/04/11 01:28:50;;;;;;;3.33;1.90;;;2.20;99.60;;;;;;2246560;26;20313;-73
2024/04/11 01:29:51;;;;;;;3.92;1.77;;;2.00;99.50;;;;;;2239458;26;20395;-73
2024/04/11 01:30:52;;;;;;;2.78;1.50;;;2.00;99.70;;;;;;2224121;26;20266;-73
2024/04/11 01:31:59;;;;;;;2.80;1.60;;;2.00;99.90;;;;;;2226891;26;20271;-74
2024/04/11 01:33:00;;;;;;;5.38;2.08;;;2.00;99.90;;;;;;2227614;26;20427;-73
2024/04/11 01:34:00;;;;;;;3.87;1.53;;;2.00;99.90;;;;;;2236503;26;20347;-73
2024/04/11 01:35:01;;;;;;;5.67;1.50;;;2.00;99.90;;;;;;2231713;26;21218;-72
2024/04/11 01:36:03;;;;;;;3.07;1.30;;;2.00;99.90;;;;;;2233456;26;20237;-73
2024/04/11 01:37:04;;;;;;;4.30;1.65;;;2.00;99.90;;;;;;2235883;26;20281;-73
2024/04/11 01:38:08;;;;;;;5.30;2.07;;;2.10;99.90;;;;;;2235258;26;20237;-73
2024/04/11 01:39:11;;;;;;;3.33;1.33;;;2.10;99.90;;;;;;2235043;26;20291;-73
2024/04/11 01:40:16;;;;;;;3.08;1.85;;;2.20;99.90;;;;;;2240981;26;20616;-73
2024/04/11 01:41:17;;;;;;;2.70;1.65;;;2.30;99.90;;;;;;2234990;26;20809;-73
2024/04/11 01:42:18;;;;;;;2.85;1.80;;;2.30;99.90;;;;;;2238125;26;20225;-73
2024/04/11 01:43:19;;;;;;;4.88;1.63;;;2.30;99.90;;;;;;2245272;26;20258;-73
2024/04/11 01:44:21;;;;;;;2.63;1.80;;;2.40;99.90;;;;;;2228540;26;20221;-72
2024/04/11 01:45:24;;;;;;;3.78;1.55;;;2.30;99.90;;;;;;2235624;26;20261;-73
2024/04/11 01:46:25;;;;;;;3.88;2.10;;;2.30;99.90;;;;;;2238078;26;20320;-73
2024/04/11 01:47:26;;;;;;;2.60;1.63;;;2.20;99.90;;;;;;2235224;26;20261;-73
2024/04/11 01:48:27;;;;;;;4.75;1.95;;;2.20;99.90;;;;;;2213691;26;20290;-73
2024/04/11 01:49:31;;;;;;;4.13;1.93;;;2.30;99.90;;;;;;2231106;26;20712;-73
2024/04/11 01:50:32;;;;;;;3.20;1.70;;;2.30;99.90;;;;;;2236434;26;20262;-73
2024/04/11 01:51:33;;;;;;;3.27;2.27;;;2.40;99.90;;;;;;2235026;26;20265;-74
2024/04/11 01:52:33;;;;;;;3.77;1.80;;;2.30;99.90;;;;;;2248540;26;20290;-74
2024/04/11 01:53:36;;;;;;;3.20;1.83;;;2.40;99.90;;;;;;2245037;26;20410;-74
2024/04/11 01:54:38;;;;;;;2.80;1.40;;;2.40;99.90;;;;;;2243133;26;20733;-74
2024/04/11 01:55:39;;;;;;;2.65;1.30;;;2.40;99.90;;;;;;2244963;26;20256;-74
2024/04/11 01:56:40;;;;;;;3.53;1.77;;;2.30;99.90;;;;;;2242229;26;20648;-74
2024/04/11 01:57:41;;;;;;;3.73;1.97;;;2.30;99.90;;;;;;2245333;26;20262;-73
2024/04/11 01:58:42;;;;;;;6.43;2.00;;;2.40;99.90;;;;;;2217134;26;20271;-74
2024/04/11 01:59:43;;;;;;;4.80;2.03;;;2.40;99.90;;;;;;2231599;26;20270;-74
2024/04/11 02:00:44;;;;;;;2.97;2.10;;;2.40;99.80;;;;;;2247862;26;21017;-72
2024/04/11 02:01:45;;;;;;;3.63;1.95;;;2.50;99.90;;;;;;2244118;26;20268;-72
2024/04/11 02:02:49;;;;;;;3.60;1.70;;;2.50;99.90;;;;;;2247866;26;20760;-72
2024/04/11 02:03:53;;;;;;;4.00;1.70;;;2.40;99.90;;;;;;2248671;26;20843;-73
2024/04/11 02:04:54;;;;;;;4.25;1.83;;;2.40;99.90;;;;;;2244072;26;20332;-73
2024/04/11 02:05:54;;;;;;;2.87;1.30;;;2.30;99.90;;;;;;2247892;26;20277;-72
2024/04/11 02:06:58;;;;;;;7.85;1.90;;;2.40;99.90;;;;;;2229255;26;20269;-72
2024/04/11 02:08:01;;;;;;;5.60;2.05;;;2.30;99.70;;;;;;2231278;26;20306;-72
2024/04/11 02:09:09;;;;;;;2.45;1.48;;;2.30;99.60;;;;;;2241800;26;20667;-72
2024/04/11 02:10:11;;;;;;;3.45;1.58;;;2.10;99.70;;;;;;2236827;26;20235;-73
2024/04/11 02:11:11;;;;;;;2.38;1.85;;;2.10;99.80;;;;;;2250616;26;20242;-73
2024/04/11 02:12:12;;;;;;;4.47;1.40;;;2.10;99.90;;;;;;2244200;26;20780;-73
2024/04/11 02:13:13;;;;;;;4.40;1.73;;;2.10;99.90;;;;;;2243428;26;20945;-73
2024/04/11 02:14:13;;;;;;;2.97;2.13;;;2.10;99.90;;;;;;2244201;26;20334;-73
2024/04/11 02:15:14;;;;;;;3.47;1.60;;;2.10;99.80;;;;;;2245391;26;20270;-73
2024/04/11 02:16:15;;;;;;;6.67;1.97;;;2.00;99.80;;;;;;2246789;26;20960;-73
2024/04/11 02:17:15;;;;;;;2.90;1.93;;;2.00;99.90;;;;;;2247910;26;20559;-73
2024/04/11 02:18:16;;;;;;;2.83;1.80;;;2.00;99.90;;;;;;2214309;26;20281;-72
2024/04/11 02:19:17;;;;;;;2.27;1.67;;;2.10;99.90;;;;;;2216740;26;20818;-73
2024/04/11 02:20:18;;;;;;;2.63;1.43;;;2.00;99.90;;;;;;2216505;26;20238;-73
2024/04/11 02:21:19;;;;;;;1.60;1.33;;;2.00;99.90;;;;;;2220843;26;20714;-73
2024/04/11 02:22:19;;;;;;;4.38;1.80;;;2.00;99.90;;;;;;2213560;26;20241;-73
2024/04/11 02:23:20;;;;;;;2.80;1.63;;;1.90;99.90;;;;;;2219676;26;20651;-73
2024/04/11 02:24:22;;;;;;;2.50;1.60;;;2.00;99.90;;;;;;2233576;26;21715;-73
2024/04/11 02:25:23;;;;;;;6.10;2.15;;;2.00;99.90;;;;;;2215824;26;20667;-72
2024/04/11 02:26:24;;;;;;;2.50;1.57;;;2.10;99.90;;;;;;2221249;26;20266;-73
2024/04/11 02:27:25;;;;;;;3.25;1.50;;;2.10;99.90;;;;;;2220947;26;20266;-73
2024/04/11 02:28:26;;;;;;;3.93;1.53;;;2.00;99.90;;;;;;2242742;26;20303;-73
2024/04/11 02:29:28;;;;;;;4.93;2.20;;;2.10;99.90;;;;;;2214262;26;20323;-73
2024/04/11 02:30:29;;;;;;;5.93;2.00;;;2.10;99.90;;;;;;2216731;26;20268;-73
2024/04/11 02:31:33;;;;;;;2.67;1.70;;;2.00;99.90;;;;;;2225294;26;20273;-73
2024/04/11 02:32:34;;;;;;;5.20;1.75;;;2.10;99.90;;;;;;2235824;26;20270;-73
2024/04/11 02:33:36;;;;;;;11.43;2.87;;;2.10;99.90;;;;;;2231858;26;20855;-73
2024/04/11 02:34:36;;;;;;;2.72;1.77;;;2.10;99.90;;;;;;2226149;26;20315;-72
2024/04/11 02:35:38;;;;;;;5.23;1.73;;;2.10;99.90;;;;;;2245384;26;20712;-73
2024/04/11 02:36:39;;;;;;;3.17;2.22;;;2.10;99.90;;;;;;2236609;26;20661;-73
2024/04/11 02:37:40;;;;;;;6.05;2.00;;;2.10;99.80;;;;;;2231747;26;20269;-73
2024/04/11 02:38:41;;;;;;;5.97;2.80;;;2.10;99.90;;;;;;2233676;26;20262;-73
2024/04/11 02:39:41;;;;;;;6.53;2.40;;;2.00;99.90;;;;;;2220903;26;20270;-73
2024/04/11 02:40:42;;;;;;;2.43;2.20;;;2.00;99.90;;;;;;2235123;26;20816;-73
2024/04/11 02:41:43;;;;;;;4.20;1.83;;;2.10;99.90;;;;;;2233547;26;20473;-73
2024/04/11 02:42:44;;;;;;;6.38;2.03;;;2.10;99.90;;;;;;2234126;26;20265;-73
2024/04/11 02:43:45;;;;;;;3.27;2.07;;;2.10;99.90;;;;;;2222194;26;20660;-73
2024/04/11 02:44:50;;;;;;;7.32;2.40;;;2.20;99.90;;;;;;2232216;26;20264;-73
2024/04/11 02:45:53;;;;;;;4.70;2.38;;;2.20;99.90;;;;;;2249613;26;20389;-73
2024/04/11 02:46:54;;;;;;;6.38;2.15;;;2.20;99.90;;;;;;2243371;26;20351;-73
2024/04/11 02:47:55;;;;;;;4.50;1.90;;;2.20;99.90;;;;;;2269471;26;20323;-73
2024/04/11 02:48:55;;;;;;;3.50;1.52;;;2.10;99.90;;;;;;2249600;26;20262;-74
2024/04/11 02:49:56;;;;;;;2.90;1.63;;;2.10;99.90;;;;;;2241989;26;20262;-73
2024/04/11 02:50:57;;;;;;;2.43;1.70;;;2.00;99.90;;;;;;2233187;26;20267;-73
2024/04/11 02:51:59;;;;;;;4.27;1.60;;;2.10;99.90;;;;;;2236448;26;20751;-73
2024/04/11 02:53:00;;;;;;;4.88;2.05;;;2.00;99.90;;;;;;2222203;26;20313;-74
2024/04/11 02:54:05;;;;;;;3.20;1.90;;;2.10;99.90;;;;;;2208222;26;20271;-74
2024/04/11 02:55:06;;;;;;;4.20;1.50;;;2.00;99.90;;;;;;2234675;26;20229;-74
2024/04/11 02:56:07;;;;;;;3.17;1.85;;;2.00;99.90;;;;;;2237086;26;20263;-73
2024/04/11 02:57:08;;;;;;;2.38;1.60;;;1.90;99.80;;;;;;2244369;26;20309;-73
2024/04/11 02:58:09;;;;;;;5.33;1.90;;;1.90;99.90;;;;;;2224386;26;20242;-74
2024/04/11 02:59:11;;;;;;;2.43;2.10;;;1.90;99.90;;;;;;2227251;26;20612;-73
2024/04/11 03:00:16;;;;;;;3.30;2.00;;;1.90;99.90;;;;;;2246052;26;20264;-73
2024/04/11 03:01:17;;;;;;;2.50;1.73;;;1.90;99.90;;;;;;2241692;26;20272;-73
2024/04/11 03:02:18;;;;;;;3.20;2.10;;;2.00;99.90;;;;;;2244484;26;20881;-73
2024/04/11 03:03:18;;;;;;;2.70;1.83;;;2.00;99.90;;;;;;2242695;26;20221;-74
2024/04/11 03:04:21;;;;;;;3.40;1.60;;;2.00;99.90;;;;;;2243035;26;20302;-73
2024/04/11 03:05:22;;;;;;;3.78;1.80;;;2.00;99.90;;;;;;2241550;26;20311;-74
2024/04/11 03:06:23;;;;;;;4.22;2.20;;;2.00;99.90;;;;;;2233105;26;20980;-73
2024/04/11 03:07:24;;;;;;;2.63;1.80;;;2.00;99.90;;;;;;2201430;26;20370;-73
2024/04/11 03:08:27;;;;;;;2.53;2.00;;;2.00;99.90;;;;;;2214877;26;20395;-73
2024/04/11 03:09:27;;;;;;;5.15;1.90;;;2.00;99.90;;;;;;2220174;26;20297;-73
2024/04/11 03:10:28;;;;;;;3.37;1.70;;;2.00;99.90;;;;;;2212348;26;20307;-73
2024/04/11 03:11:29;;;;;;;2.53;1.70;;;2.00;99.90;;;;;;2221708;26;20279;-73
2024/04/11 03:12:30;;;;;;;2.20;1.90;;;1.90;99.60;;;;;;2219461;26;20318;-73
2024/04/11 03:13:30;;;;;;;5.00;1.63;;;2.00;99.70;;;;;;2243754;26;20654;-73
2024/04/11 03:14:32;;;;;;;4.30;1.80;;;2.00;99.90;;;;;;2237522;26;21304;-73
2024/04/11 03:15:32;;;;;;;2.30;1.65;;;2.00;99.70;;;;;;2233297;26;20309;-73
2024/04/11 03:16:33;;;;;;;3.00;1.80;;;1.90;99.40;;;;;;2247611;26;20315;-74
2024/04/11 03:17:34;;;;;;;6.77;2.10;;;1.90;99.60;;;;;;2241154;26;20317;-73
2024/04/11 03:18:34;;;;;;;6.47;2.37;;;1.90;99.70;;;;;;2240786;26;20269;-73
2024/04/11 03:19:35;;;;;;;4.73;1.80;;;1.90;99.90;;;;;;2246492;26;20337;-73
2024/04/11 03:20:35;;;;;;;2.63;1.80;;;1.90;99.90;;;;;;2247292;26;20662;-74
2024/04/11 03:21:36;;;;;;;3.77;1.87;;;1.80;99.90;;;;;;2235663;26;20269;-74
2024/04/11 03:22:37;;;;;;;2.50;1.53;;;1.80;99.90;;;;;;2242492;26;20276;-73
2024/04/11 03:23:38;;;;;;;2.33;1.50;;;1.80;99.90;;;;;;2243346;26;20257;-73
2024/04/11 03:24:38;;;;;;;4.37;2.00;;;1.80;99.90;;;;;;2242088;26;20267;-73
2024/04/11 03:25:39;;;;;;;3.20;2.00;;;1.80;99.90;;;;;;2239541;26;20311;-74
2024/04/11 03:26:40;;;;;;;3.23;1.77;;;1.80;99.90;;;;;;2241937;26;20321;-73
2024/04/11 03:27:40;;;;;;;5.13;2.30;;;1.70;99.90;;;;;;2242384;26;20300;-74
2024/04/11 03:28:44;;;;;;;2.83;2.00;;;1.80;99.90;;;;;;2221098;26;20718;-73
2024/04/11 03:29:45;;;;;;;5.90;2.20;;;1.80;99.90;;;;;;2234136;26;20811;-74
2024/04/11 03:30:56;;;;;;;6.43;1.98;;;1.80;99.90;;;;;;2213387;26;20268;-74
2024/04/11 03:31:57;;;;;;;3.90;1.90;;;1.80;99.90;;;;;;2225688;26;20695;-74
2024/04/11 03:32:58;;;;;;;2.23;1.53;;;1.80;99.90;;;;;;2237397;26;20270;-74
2024/04/11 03:34:02;;;;;;;2.60;1.90;;;1.80;99.90;;;;;;2238144;26;20268;-73
2024/04/11 03:35:04;;;;;;;4.25;1.85;;;1.90;99.90;;;;;;2223370;26;20246;-73
2024/04/11 03:36:12;;;;;;;4.32;1.80;;;1.80;99.90;;;;;;2222192;26;21044;-73
2024/04/11 03:37:13;;;;;;;4.47;2.15;;;1.80;99.90;;;;;;2248870;26;20225;-74
2024/04/11 03:38:14;;;;;;;5.17;1.97;;;1.80;99.90;;;;;;2242822;26;20233;-73
2024/04/11 03:39:16;;;;;;;6.03;1.53;;;1.90;99.90;;;;;;2241045;26;20298;-74
2024/04/11 03:40:17;;;;;;;5.50;1.95;;;1.80;99.90;;;;;;2238806;26;20253;-73
2024/04/11 03:41:18;;;;;;;3.00;2.07;;;1.80;99.90;;;;;;2242982;26;20264;-73
2024/04/11 03:42:19;;;;;;;2.78;1.98;;;1.80;99.90;;;;;;2239808;26;20294;-72
2024/04/11 03:43:21;;;;;;;3.33;2.03;;;1.80;99.90;;;;;;2243432;26;20325;-73
2024/04/11 03:44:22;;;;;;;5.00;2.13;;;1.70;99.90;;;;;;2244822;26;20269;-73
2024/04/11 03:45:22;;;;;;;5.37;2.30;;;1.80;99.90;;;;;;2230103;26;20257;-73
2024/04/11 03:46:23;;;;;;;3.10;1.80;;;1.70;99.90;;;;;;2236133;26;20269;-72
2024/04/11 03:47:24;;;;;;;2.67;1.80;;;1.70;99.90;;;;;;2220174;26;20725;-73
2024/04/11 03:48:25;;;;;;;3.53;2.20;;;1.60;99.90;;;;;;2221137;26;20274;-73
2024/04/11 03:49:25;;;;;;;2.90;1.73;;;1.60;99.90;;;;;;2246102;26;21164;-73
2024/04/11 03:50:29;;;;;;;3.40;2.20;;;1.60;99.90;;;;;;2249177;26;20320;-72
2024/04/11 03:51:37;;;;;;;4.85;2.10;;;1.70;99.90;;;;;;2243860;26;20775;-73
2024/04/11 03:52:40;;;;;;;2.58;2.05;;;1.70;99.90;;;;;;2240925;26;20419;-74
2024/04/11 03:53:42;;;;;;;3.47;1.90;;;1.70;99.90;;;;;;2236161;26;20685;-74
2024/04/11 03:54:42;;;;;;;5.97;2.25;;;1.70;99.90;;;;;;2212775;26;20282;-72
2024/04/11 03:55:44;;;;;;;4.40;2.20;;;1.60;99.90;;;;;;2232620;26;20304;-72
2024/04/11 03:56:45;;;;;;;3.70;2.25;;;1.70;99.90;;;;;;2242072;26;20291;-73
2024/04/11 03:57:45;;;;;;;3.97;2.00;;;1.50;99.90;;;;;;2227285;26;20272;-73
2024/04/11 03:58:47;;;;;;;3.40;2.07;;;1.60;99.90;;;;;;2236966;26;20269;-73
2024/04/11 03:59:48;;;;;;;6.80;2.40;;;1.70;99.90;;;;;;2241832;26;20269;-73
2024/04/11 04:00:48;;;;;;;4.27;2.10;;;1.70;99.90;;;;;;2242930;26;20687;-73
2024/04/11 04:01:49;;;;;;;3.97;2.27;;;1.70;99.90;;;;;;2237999;26;20282;-74
2024/04/11 04:02:51;;;;;;;5.70;2.47;;;1.60;99.90;;;;;;2241726;26;20405;-73
2024/04/11 04:03:56;;;;;;;2.60;1.63;;;1.50;99.90;;;;;;2228572;26;20645;-73
2024/04/11 04:04:58;;;;;;;5.97;2.08;;;1.60;99.90;;;;;;2215327;26;20268;-73
2024/04/11 04:05:59;;;;;;;3.30;1.90;;;1.60;99.90;;;;;;2234076;26;20616;-73
2024/04/11 04:07:00;;;;;;;6.95;2.38;;;1.50;99.90;;;;;;2234564;26;20265;-74
2024/04/11 04:08:01;;;;;;;6.47;2.28;;;1.40;99.90;;;;;;2247598;26;20300;-71
2024/04/11 04:09:07;;;;;;;3.60;1.77;;;1.50;99.90;;;;;;2244642;26;20224;-73
2024/04/11 04:10:08;;;;;;;4.28;1.88;;;1.50;99.90;;;;;;2235514;26;20731;-73
2024/04/11 04:11:09;;;;;;;3.80;2.40;;;1.40;99.90;;;;;;2236454;26;20305;-73
2024/04/11 04:12:10;;;;;;;6.25;2.92;;;1.50;99.90;;;;;;2264349;26;20275;-73
2024/04/11 04:13:11;;;;;;;5.27;2.60;;;1.60;99.90;;;;;;2240525;26;20337;-73
2024/04/11 04:14:13;;;;;;;7.13;3.80;;;1.60;99.90;;;;;;2236455;26;20291;-73
2024/04/11 04:15:14;;;;;;;9.20;4.40;;;1.60;99.90;;;;;;2239389;26;20266;-73
2024/04/11 04:16:16;;;;;;;9.30;6.57;;;1.50;99.90;;;;;;2247177;26;20364;-73
2024/04/11 04:17:17;;;;;;;11.23;8.02;;;1.50;99.90;;;;;;2235809;26;20237;-74
2024/04/11 04:18:19;;;;;;;15.80;11.70;;;1.50;99.90;;;;;;2227252;26;20532;-73
2024/04/11 04:19:20;;;;;;;11.57;9.40;;;1.50;99.90;;;;;;2244218;26;20614;-73
2024/04/11 04:20:21;;;;;;;13.63;10.43;;;1.50;99.90;;;;;;2265764;26;20330;-73
2024/04/11 04:21:26;;;;;;;13.90;10.93;;;1.50;99.90;;;;;;2227530;26;20958;-74
2024/04/11 04:22:27;;;;;;;10.50;8.25;;;1.40;99.90;;;;;;2233971;26;20274;-73
2024/04/11 04:23:28;;;;;;;10.93;8.30;;;1.50;99.90;;;;;;2236485;26;20281;-73
2024/04/11 04:24:28;;;;;;;13.75;8.55;;;1.60;99.90;;;;;;2235148;26;20336;-73
2024/04/11 04:25:29;;;;;;;6.00;4.57;;;1.60;99.90;;;;;;2234289;26;20442;-73
2024/04/11 04:26:32;;;;;;;4.77;3.77;;;1.60;99.90;;;;;;2224682;26;20752;-73
2024/04/11 04:27:33;;;;;;;5.05;3.45;;;1.50;99.90;;;;;;2227103;26;20763;-73
2024/04/11 04:28:39;;;;;;;7.30;3.37;;;1.50;99.90;;;;;;2235950;26;20342;-74
2024/04/11 04:29:40;;;;;;;6.40;2.83;;;1.50;99.90;;;;;;2237449;26;20393;-73
2024/04/11 04:30:44;;;;;;;5.75;2.42;;;1.50;99.90;;;;;;2256906;26;20276;-73
2024/04/11 04:31:47;;;;;;;4.68;2.25;;;1.50;99.90;;;;;;2250256;26;20307;-73
2024/04/11 04:32:47;;;;;;;4.15;2.92;;;1.40;99.90;;;;;;2233091;26;20992;-73
2024/04/11 04:33:50;;;;;;;4.73;2.70;;;1.50;99.90;;;;;;2239192;26;20366;-73
2024/04/11 04:34:51;;;;;;;6.50;3.05;;;1.50;99.90;;;;;;2236325;26;20270;-73
2024/04/11 04:35:52;;;;;;;4.80;2.10;;;1.50;99.90;;;;;;2234746;26;20304;-73
2024/04/11 04:36:55;;;;;;;2.95;2.00;;;1.40;99.90;;;;;;2227912;26;20282;-74
2024/04/11 04:37:55;;;;;;;3.35;1.90;;;1.30;99.90;;;;;;2225941;26;20271;-74
2024/04/11 04:38:57;;;;;;;4.00;2.37;;;1.30;99.90;;;;;;2214031;26;20266;-73
2024/04/11 04:39:59;;;;;;;7.80;2.80;;;1.20;99.90;;;;;;2220490;26;20646;-73
2024/04/11 04:41:00;;;;;;;4.47;2.50;;;1.40;99.90;;;;;;2198455;26;20302;-73
2024/04/11 04:42:02;;;;;;;5.72;3.03;;;1.40;99.90;;;;;;2197351;26;20361;-73
2024/04/11 04:43:02;;;;;;;6.60;2.30;;;1.50;99.90;;;;;;2215471;26;20307;-73
2024/04/11 04:44:05;;;;;;;8.53;2.40;;;1.50;99.90;;;;;;2222207;26;20592;-74
2024/04/11 04:45:09;;;;;;;5.15;2.85;;;1.50;99.90;;;;;;2249214;26;20272;-73
2024/04/11 04:46:15;;;;;;;6.55;2.70;;;1.50;99.90;;;;;;2233391;26;20333;-74
2024/04/11 04:47:16;;;;;;;4.35;2.20;;;1.50;99.90;;;;;;2235958;26;20233;-73
2024/04/11 04:48:17;;;;;;;3.23;2.07;;;1.40;99.90;;;;;;2240979;26;20728;-73
2024/04/11 04:49:18;;;;;;;5.77;2.00;;;1.40;99.90;;;;;;2245919;26;20325;-73
2024/04/11 04:50:19;;;;;;;3.67;2.10;;;1.40;99.90;;;;;;2249601;26;20220;-73
2024/04/11 04:51:20;;;;;;;5.33;2.30;;;1.40;99.90;;;;;;2246009;26;20226;-74
2024/04/11 04:52:24;;;;;;;4.00;2.17;;;1.40;99.90;;;;;;2238842;26;20630;-73
2024/04/11 04:53:25;;;;;;;4.13;2.10;;;1.50;99.90;;;;;;2219410;26;20310;-72
2024/04/11 04:54:26;;;;;;;3.97;2.60;;;1.50;99.90;;;;;;2227503;26;20263;-73
2024/04/11 04:55:27;;;;;;;6.50;2.80;;;1.50;99.90;;;;;;2220692;26;20266;-73
2024/04/11 04:56:29;;;;;;;6.77;3.23;;;1.50;99.90;;;;;;2220249;26;20994;-72
2024/04/11 04:57:31;;;;;;;4.55;2.78;;;1.50;99.90;;;;;;2232285;26;20739;-73
2024/04/11 04:58:32;;;;;;;7.40;3.55;;;1.50;99.90;;;;;;2250750;26;20361;-73
2024/04/11 04:59:33;;;;;;;6.93;3.60;;;1.50;99.90;;;;;;2241829;26;20281;-73
2024/04/11 05:00:34;;;;;;;5.37;3.60;;;1.60;99.90;;;;;;2233166;26;21209;-73
2024/04/11 05:01:35;;;;;;;7.00;4.13;;;1.60;99.90;;;;;;2250839;26;20264;-73
2024/04/11 05:02:35;;;;;;;5.00;3.40;;;1.70;99.90;;;;;;2249959;26;20267;-73
2024/04/11 05:03:38;;;;;;;6.60;3.40;;;1.70;99.90;;;;;;2250936;26;20265;-75
2024/04/11 05:04:39;;;;;;;8.05;4.10;;;1.70;99.90;;;;;;2243054;26;20300;-72
2024/04/11 05:05:43;;;;;;;8.60;4.07;;;1.70;99.90;;;;;;2234653;26;20299;-72
2024/04/11 05:06:45;;;;;;;5.32;3.40;;;1.80;99.90;;;;;;2222224;26;20321;-74
2024/04/11 05:07:51;;;;;;;7.10;3.30;;;1.80;99.90;;;;;;2229204;26;20698;-73
2024/04/11 05:08:54;;;;;;;8.00;3.35;;;1.80;99.90;;;;;;2229575;26;20272;-72
2024/04/11 05:09:55;;;;;;;5.93;3.03;;;1.80;99.90;;;;;;2228620;26;20304;-73
2024/04/11 05:10:56;;;;;;;7.77;3.50;;;1.90;99.90;;;;;;2227542;26;20264;-72
2024/04/11 05:11:57;;;;;;;5.63;3.23;;;1.90;99.90;;;;;;2228332;26;20379;-74
2024/04/11 05:12:59;;;;;;;8.45;3.55;;;1.90;99.90;;;;;;2250343;26;20440;-73
2024/04/11 05:14:07;;;;;;;8.75;3.70;;;1.90;99.90;;;;;;2228034;26;20282;-73
2024/04/11 05:15:12;;;;;;;6.90;3.28;;;2.00;99.90;;;;;;2221619;26;20650;-73
2024/04/11 05:16:18;;;;;;;7.18;4.07;;;2.00;99.90;;;;;;2229429;26;20685;-73
2024/04/11 05:17:20;;;;;;;6.47;3.17;;;2.00;99.90;;;;;;2250339;26;20228;-73
2024/04/11 05:18:21;;;;;;;5.82;2.67;;;2.10;99.90;;;;;;2249293;26;20308;-73
2024/04/11 05:19:22;;;;;;;5.70;2.90;;;2.10;99.90;;;;;;2231924;26;20314;-73
2024/04/11 05:20:27;;;;;;;4.97;3.00;;;2.20;99.90;;;;;;2233432;26;20266;-73
2024/04/11 05:21:29;;;;;;;5.80;2.92;;;2.20;99.90;;;;;;2221748;26;20323;-72
2024/04/11 05:22:29;;;;;;;3.78;2.45;;;2.30;99.90;;;;;;2217042;26;20273;-73
2024/04/11 05:23:32;;;;;;;3.87;2.70;;;2.30;99.90;;;;;;2243368;26;20268;-72
2024/04/11 05:24:33;;;;;;;4.43;2.80;;;2.40;99.90;;;;;;2229164;26;20396;-73
2024/04/11 05:25:33;;;;;;;7.03;3.23;;;2.40;99.90;;;;;;2206279;26;20386;-73